createdAt,value
2022-09-26T00:01:33.832Z,13.02
2022-09-26T00:04:05.105Z,13.04
2022-09-26T00:06:32.447Z,13.03
2022-09-26T00:09:00.938Z,13.03
2022-09-26T00:11:32.546Z,13.05
2022-09-26T00:14:08.091Z,13.04
2022-09-26T00:16:41.424Z,13.03
2022-09-26T00:19:09.345Z,13.04
2022-09-26T00:21:37.397Z,13.04
2022-09-26T00:24:05.336Z,13.04
2022-09-26T00:26:34.118Z,13.02
2022-09-26T00:29:04.848Z,13.02
2022-09-26T00:31:34.223Z,12.98
2022-09-26T00:34:02.399Z,12.97
2022-09-26T00:36:38.018Z,12.97
2022-09-26T00:39:10.757Z,12.92
2022-09-26T00:41:39.058Z,12.90
2022-09-26T00:44:40.365Z,12.89
2022-09-26T00:47:23.659Z,12.88
2022-09-26T00:49:55.522Z,12.86
2022-09-26T00:52:32.732Z,12.86
2022-09-26T00:55:02.225Z,12.82
2022-09-26T00:57:34.859Z,12.80
2022-09-26T01:00:07.317Z,12.82
2022-09-26T01:02:34.898Z,12.81
2022-09-26T01:05:04.054Z,12.80
2022-09-26T01:07:31.716Z,12.78
2022-09-26T01:10:05.866Z,12.80
2022-09-26T01:12:36.731Z,12.82
2022-09-26T01:15:06.430Z,12.81
2022-09-26T01:17:34.018Z,12.83
2022-09-26T01:20:39.855Z,12.83
2022-09-26T01:23:13.520Z,12.86
2022-09-26T01:25:55.895Z,12.90
2022-09-26T01:28:42.746Z,12.92
2022-09-26T01:31:11.996Z,12.96
2022-09-26T01:33:45.735Z,12.99
2022-09-26T01:36:41.806Z,13.02
2022-09-26T01:39:42.469Z,13.05
2022-09-26T01:42:37.888Z,13.06
2022-09-26T01:45:19.238Z,13.07
2022-09-26T01:47:54.613Z,13.10
2022-09-26T01:50:34.926Z,13.14
2022-09-26T01:53:10.266Z,13.16
2022-09-26T01:55:52.046Z,13.18
2022-09-26T01:58:28.162Z,13.19
2022-09-26T02:00:58.497Z,13.21
2022-09-26T02:03:28.897Z,13.22
2022-09-26T02:06:01.686Z,13.27
2022-09-26T02:08:38.081Z,13.29
2022-09-26T02:11:12.849Z,13.32
2022-09-26T02:13:55.725Z,13.32
2022-09-26T02:16:30.523Z,13.32
2022-09-26T02:19:04.322Z,13.35
2022-09-26T02:21:38.685Z,13.34
2022-09-26T02:24:07.015Z,13.38
2022-09-26T02:26:34.327Z,13.37
2022-09-26T02:29:03.578Z,13.40
2022-09-26T02:31:35.605Z,13.41
2022-09-26T02:34:04.084Z,13.42
2022-09-26T02:36:34.644Z,13.44
2022-09-26T02:39:04.796Z,13.42
2022-09-26T02:41:35.073Z,13.43
2022-09-26T02:44:24.162Z,13.42
2022-09-26T02:47:27.378Z,13.40
2022-09-26T02:50:14.273Z,13.39
2022-09-26T02:53:00.667Z,13.40
2022-09-26T02:55:35.838Z,13.40
2022-09-26T02:58:24.133Z,13.39
2022-09-26T03:01:22.500Z,13.38
2022-09-26T03:04:14.864Z,13.33
2022-09-26T03:06:45.094Z,13.32
2022-09-26T03:09:13.300Z,13.32
2022-09-26T03:11:41.899Z,13.29
2022-09-26T03:14:09.382Z,13.28
2022-09-26T03:16:39.185Z,13.27
2022-09-26T03:19:11.090Z,13.25
2022-09-26T03:21:38.496Z,13.21
2022-09-26T03:24:05.983Z,13.15
2022-09-26T03:26:33.405Z,13.08
2022-09-26T03:29:00.665Z,13.04
2022-09-26T03:31:31.502Z,13.02
2022-09-26T03:33:59.662Z,12.99
2022-09-26T03:36:28.245Z,12.94
2022-09-26T03:38:55.495Z,12.95
2022-09-26T03:41:23.080Z,12.95
2022-09-26T03:43:50.312Z,12.97
2022-09-26T03:46:18.258Z,13.01
2022-09-26T03:48:45.630Z,13.01
2022-09-26T03:51:13.996Z,13.05
2022-09-26T03:53:45.531Z,13.09
2022-09-26T03:56:16.313Z,13.12
2022-09-26T03:58:44.342Z,13.13
2022-09-26T04:01:14.002Z,13.15
2022-09-26T04:03:47.746Z,13.14
2022-09-26T04:06:20.099Z,13.14
2022-09-26T04:08:50.992Z,13.13
2022-09-26T04:11:21.835Z,13.11
2022-09-26T04:13:52.545Z,13.11
2022-09-26T04:16:23.879Z,13.07
2022-09-26T04:18:56.856Z,13.08
2022-09-26T04:21:25.397Z,13.06
2022-09-26T04:23:56.076Z,13.07
2022-09-26T04:26:24.481Z,13.09
2022-09-26T04:28:55.533Z,13.12
2022-09-26T04:31:24.508Z,13.13
2022-09-26T04:33:51.895Z,13.18
2022-09-26T04:36:19.144Z,13.22
2022-09-26T04:38:47.070Z,13.28
2022-09-26T04:41:19.544Z,13.32
2022-09-26T04:43:47.297Z,13.39
2022-09-26T04:46:20.809Z,13.45
2022-09-26T04:48:51.142Z,13.51
2022-09-26T04:51:19.645Z,13.57
2022-09-26T04:53:48.520Z,13.68
2022-09-26T04:56:16.648Z,13.82
2022-09-26T04:58:44.615Z,13.97
2022-09-26T05:01:14.329Z,14.10
2022-09-26T05:03:42.898Z,14.22
2022-09-26T05:06:10.979Z,14.35
2022-09-26T05:08:41.271Z,14.43
2022-09-26T05:11:09.403Z,14.50
2022-09-26T05:13:37.963Z,14.58
2022-09-26T05:16:11.134Z,14.63
2022-09-26T05:18:39.589Z,14.79
2022-09-26T05:21:07.693Z,14.92
2022-09-26T05:23:55.480Z,15.04
2022-09-26T05:26:24.760Z,15.33
2022-09-26T05:28:54.777Z,15.68
2022-09-26T05:31:25.386Z,15.96
2022-09-26T05:33:53.068Z,16.14
2022-09-26T05:36:20.372Z,16.16
2022-09-26T05:38:47.901Z,16.12
2022-09-26T05:41:15.250Z,16.05
2022-09-26T05:43:42.618Z,16.04
2022-09-26T05:46:11.976Z,16.08
2022-09-26T05:48:40.137Z,16.21
2022-09-26T05:51:13.527Z,16.40
2022-09-26T05:53:46.531Z,16.63
2022-09-26T05:56:19.723Z,16.88
2022-09-26T05:58:48.238Z,17.20
2022-09-26T06:01:17.970Z,17.43
2022-09-26T06:03:46.631Z,17.71
2022-09-26T06:06:15.926Z,17.95
2022-09-26T06:08:54.087Z,18.05
2022-09-26T06:11:33.328Z,18.09
2022-09-26T06:14:02.820Z,18.13
2022-09-26T06:16:33.000Z,18.34
2022-09-26T06:19:02.607Z,18.41
2022-09-26T06:21:30.045Z,18.44
2022-09-26T06:23:57.917Z,18.51
2022-09-26T06:26:27.051Z,18.68
2022-09-26T06:29:00.344Z,19.01
2022-09-26T06:31:28.628Z,19.28
2022-09-26T06:33:56.315Z,19.41
2022-09-26T06:36:24.733Z,19.52
2022-09-26T06:38:56.075Z,19.52
2022-09-26T06:41:23.444Z,19.30
2022-09-26T06:43:51.040Z,19.03
2022-09-26T06:46:18.488Z,18.82
2022-09-26T06:48:46.683Z,18.69
2022-09-26T06:51:14.389Z,18.63
2022-09-26T06:53:46.055Z,18.53
2022-09-26T06:56:17.646Z,18.42
2022-09-26T06:58:45.464Z,18.45
2022-09-26T07:01:14.565Z,18.64
2022-09-26T07:03:45.686Z,18.91
2022-09-26T07:06:14.409Z,19.26
2022-09-26T07:09:01.651Z,19.55
2022-09-26T07:11:50.875Z,19.74
2022-09-26T07:14:19.204Z,19.72
2022-09-26T07:16:49.747Z,19.71
2022-09-26T07:19:18.654Z,19.81
2022-09-26T07:21:47.526Z,19.93
2022-09-26T07:24:14.888Z,20.02
2022-09-26T07:26:42.399Z,20.05
2022-09-26T07:29:10.448Z,20.14
2022-09-26T07:31:38.254Z,20.13
2022-09-26T07:34:06.202Z,20.11
2022-09-26T07:36:33.536Z,20.25
2022-09-26T07:39:01.361Z,20.36
2022-09-26T07:41:31.269Z,20.59
2022-09-26T07:45:01.887Z,20.70
2022-09-26T07:47:12.521Z,20.82
2022-09-26T07:50:01.940Z,20.99
2022-09-26T07:52:30.804Z,21.00
2022-09-26T07:54:58.644Z,21.06
2022-09-26T07:57:26.137Z,21.06
2022-09-26T07:59:54.283Z,21.08
2022-09-26T08:02:28.056Z,21.08
2022-09-26T08:05:00.250Z,21.08
2022-09-26T08:07:28.391Z,21.10
2022-09-26T08:09:56.895Z,21.04
2022-09-26T08:12:24.337Z,21.02
2022-09-26T08:14:53.053Z,21.00
2022-09-26T08:17:21.000Z,21.05
2022-09-26T08:19:48.639Z,21.08
2022-09-26T08:22:15.887Z,21.12
2022-09-26T08:24:45.236Z,21.13
2022-09-26T08:27:13.288Z,21.06
2022-09-26T08:29:40.536Z,21.06
2022-09-26T08:32:08.527Z,21.21
2022-09-26T08:34:36.577Z,21.33
2022-09-26T08:37:04.083Z,21.43
2022-09-26T08:39:33.579Z,21.39
2022-09-26T08:42:24.050Z,21.50
2022-09-26T08:45:35.582Z,21.63
2022-09-26T08:48:15.473Z,21.83
2022-09-26T08:50:54.278Z,22.06
2022-09-26T08:53:28.197Z,22.10
2022-09-26T08:55:57.336Z,22.07
2022-09-26T08:58:42.292Z,22.15
2022-09-26T09:01:15.824Z,22.26
2022-09-26T09:03:54.809Z,22.21
2022-09-26T09:06:24.067Z,22.16
2022-09-26T09:08:54.328Z,21.95
2022-09-26T09:11:50.911Z,21.85
2022-09-26T09:14:31.809Z,21.87
2022-09-26T09:17:15.088Z,21.94
2022-09-26T09:20:21.788Z,22.04
2022-09-26T09:23:14.005Z,22.11
2022-09-26T09:25:49.810Z,22.16
2022-09-26T09:28:26.188Z,22.05
2022-09-26T09:31:02.250Z,21.97
2022-09-26T09:33:52.879Z,21.88
2022-09-26T09:36:53.515Z,21.79
2022-09-26T09:39:29.811Z,21.80
2022-09-26T09:42:39.093Z,21.97
2022-09-26T09:45:17.158Z,22.27
2022-09-26T09:47:46.163Z,22.51
2022-09-26T09:51:02.858Z,22.64
2022-09-26T09:54:10.760Z,22.72
2022-09-26T09:56:47.493Z,22.79
2022-09-26T09:59:39.777Z,22.86
2022-09-26T10:02:38.184Z,22.86
2022-09-26T10:05:45.269Z,22.90
2022-09-26T10:08:18.287Z,22.94
2022-09-26T10:11:24.228Z,22.97
2022-09-26T10:13:56.723Z,22.99
2022-09-26T10:16:26.224Z,22.99
2022-09-26T10:19:06.930Z,23.08
2022-09-26T10:21:39.541Z,23.21
2022-09-26T10:24:34.394Z,23.33
2022-09-26T10:27:28.095Z,23.39
2022-09-26T10:29:57.392Z,23.42
2022-09-26T10:32:25.411Z,23.29
2022-09-26T10:35:17.441Z,23.20
2022-09-26T10:37:50.419Z,23.12
2022-09-26T10:40:47.746Z,23.09
2022-09-26T10:43:33.112Z,23.14
2022-09-26T10:46:09.171Z,23.16
2022-09-26T10:48:39.098Z,23.26
2022-09-26T10:51:07.594Z,23.31
2022-09-26T10:53:37.945Z,23.39
2022-09-26T10:56:08.766Z,23.51
2022-09-26T10:58:40.733Z,23.75
2022-09-26T11:01:19.216Z,23.72
2022-09-26T11:03:48.840Z,23.74
2022-09-26T11:06:34.079Z,23.88
2022-09-26T11:09:03.820Z,24.00
2022-09-26T11:11:34.045Z,24.04
2022-09-26T11:14:03.951Z,24.01
2022-09-26T11:16:51.931Z,23.93
2022-09-26T11:19:53.845Z,23.79
2022-09-26T11:22:32.510Z,23.67
2022-09-26T11:25:15.707Z,23.73
2022-09-26T11:27:53.864Z,23.89
2022-09-26T11:30:22.546Z,24.12
2022-09-26T11:32:52.332Z,24.28
2022-09-26T11:35:33.392Z,24.26
2022-09-26T11:38:20.566Z,24.03
2022-09-26T11:40:57.117Z,23.88
2022-09-26T11:43:51.760Z,23.73
2022-09-26T11:46:39.218Z,23.72
2022-09-26T11:49:19.646Z,23.75
2022-09-26T11:52:05.506Z,23.66
2022-09-26T11:55:11.769Z,23.44
2022-09-26T11:57:42.497Z,23.19
2022-09-26T12:00:16.118Z,23.08
2022-09-26T12:03:11.667Z,23.03
2022-09-26T12:05:53.513Z,23.15
2022-09-26T12:08:31.302Z,23.28
2022-09-26T12:11:15.992Z,23.37
2022-09-26T12:14:04.943Z,23.44
2022-09-26T12:16:51.935Z,23.45
2022-09-26T12:19:57.899Z,23.44
2022-09-26T12:22:40.494Z,23.34
2022-09-26T12:25:26.317Z,23.36
2022-09-26T12:28:00.168Z,23.45
2022-09-26T12:30:35.583Z,23.58
2022-09-26T12:33:23.273Z,23.64
2022-09-26T12:36:09.067Z,23.67
2022-09-26T12:38:59.453Z,23.58
2022-09-26T12:41:52.009Z,23.51
2022-09-26T12:44:31.279Z,23.48
2022-09-26T12:47:11.482Z,23.40
2022-09-26T12:49:50.937Z,23.39
2022-09-26T12:52:47.160Z,23.31
2022-09-26T12:55:32.329Z,23.16
2022-09-26T12:58:21.971Z,23.18
2022-09-26T13:01:25.714Z,23.14
2022-09-26T13:30:35.826Z,23.17
2022-09-26T13:33:23.345Z,22.99
2022-09-26T13:35:52.738Z,22.89
2022-09-26T13:38:41.162Z,22.86
2022-09-26T13:41:26.120Z,22.72
2022-09-26T13:44:17.581Z,22.58
2022-09-26T13:46:59.425Z,22.52
2022-09-26T13:49:36.817Z,22.44
2022-09-26T13:52:22.151Z,22.36
2022-09-26T13:55:04.586Z,22.30
2022-09-26T13:57:35.786Z,22.27
2022-09-26T14:00:31.675Z,22.26
2022-09-26T14:03:15.518Z,22.31
2022-09-26T14:05:46.475Z,22.35
2022-09-26T14:08:52.997Z,22.44
2022-09-26T14:11:30.712Z,22.46
2022-09-26T14:14:19.443Z,22.46
2022-09-26T14:16:54.140Z,22.45
2022-09-26T14:19:42.606Z,22.37
2022-09-26T14:22:19.170Z,22.28
2022-09-26T14:24:49.740Z,22.24
2022-09-26T14:27:36.398Z,22.16
2022-09-26T14:30:12.970Z,22.09
2022-09-26T14:32:45.585Z,21.99
2022-09-26T14:35:27.955Z,21.85
2022-09-26T14:38:04.688Z,21.72
2022-09-26T14:40:35.500Z,21.60
2022-09-26T14:43:40.313Z,21.50
2022-09-26T14:46:17.073Z,21.30
2022-09-26T14:48:44.846Z,21.18
2022-09-26T14:51:16.075Z,21.07
2022-09-26T14:53:54.730Z,20.97
2022-09-26T14:56:29.410Z,20.88
2022-09-26T14:59:24.609Z,20.80
2022-09-26T15:01:53.199Z,20.73
2022-09-26T15:04:27.466Z,20.67
2022-09-26T15:07:02.219Z,20.61
2022-09-26T15:09:29.529Z,20.53
2022-09-26T15:12:04.253Z,20.47
2022-09-26T15:14:37.971Z,20.39
2022-09-26T15:17:06.099Z,20.33
2022-09-26T15:19:41.949Z,20.25
2022-09-26T15:22:18.903Z,20.13
2022-09-26T15:24:46.539Z,20.02
2022-09-26T15:27:27.246Z,19.87
2022-09-26T15:30:04.140Z,19.72
2022-09-26T15:32:33.710Z,19.60
2022-09-26T15:35:02.625Z,19.50
2022-09-26T15:37:32.833Z,19.39
2022-09-26T15:40:15.855Z,19.29
2022-09-26T15:42:58.708Z,19.24
2022-09-26T15:45:37.939Z,19.16
2022-09-26T15:48:20.538Z,19.08
2022-09-26T15:50:53.984Z,19.01
2022-09-26T15:53:28.912Z,18.94
2022-09-26T15:56:03.764Z,18.89
2022-09-26T15:58:40.309Z,18.83
2022-09-26T16:01:08.740Z,18.80
2022-09-26T16:03:45.477Z,18.74
2022-09-26T16:07:04.402Z,18.70
2022-09-26T16:09:43.383Z,18.63
2022-09-26T16:12:17.005Z,18.57
2022-09-26T16:15:03.008Z,18.50
2022-09-26T16:17:49.053Z,18.43
2022-09-26T16:20:16.823Z,18.34
2022-09-26T16:22:53.882Z,18.29
2022-09-26T16:25:25.442Z,18.24
2022-09-26T16:28:10.208Z,18.19
2022-09-26T16:30:42.969Z,18.10
2022-09-26T16:33:30.485Z,18.07
2022-09-26T16:36:15.258Z,17.97
2022-09-26T16:38:42.769Z,17.91
2022-09-26T16:42:01.700Z,17.80
2022-09-26T16:44:35.324Z,17.70
2022-09-26T16:47:06.309Z,17.64
2022-09-26T16:49:46.383Z,17.56
2022-09-26T16:52:31.511Z,17.50
2022-09-26T16:55:09.050Z,17.42
2022-09-26T16:57:48.322Z,17.35
2022-09-26T17:00:37.357Z,17.30
2022-09-26T17:03:21.319Z,17.24
2022-09-26T17:05:51.277Z,17.19
2022-09-26T17:08:22.128Z,17.15
2022-09-26T17:10:49.406Z,17.12
2022-09-26T17:13:22.978Z,17.06
2022-09-26T17:15:53.047Z,17.02
2022-09-26T17:18:23.144Z,16.97
2022-09-26T17:20:52.880Z,16.93
2022-09-26T17:23:39.287Z,16.87
2022-09-26T17:26:07.806Z,16.81
2022-09-26T17:28:42.543Z,16.76
2022-09-26T17:31:14.679Z,16.71
2022-09-26T17:33:43.073Z,16.67
2022-09-26T17:36:20.392Z,16.65
2022-09-26T17:38:47.899Z,16.63
2022-09-26T17:41:15.688Z,16.61
2022-09-26T17:43:47.169Z,16.57
2022-09-26T17:46:16.306Z,16.58
2022-09-26T17:48:44.408Z,16.56
2022-09-26T17:51:14.531Z,16.54
2022-09-26T17:53:50.093Z,16.51
2022-09-26T17:56:19.454Z,16.49
2022-09-26T17:58:47.294Z,16.47
2022-09-26T18:01:25.007Z,16.44
2022-09-26T18:03:59.401Z,16.43
2022-09-26T18:06:31.782Z,16.40
2022-09-26T18:09:05.328Z,16.41
2022-09-26T18:11:34.497Z,16.39
2022-09-26T18:14:03.753Z,16.40
2022-09-26T18:16:31.075Z,16.41
2022-09-26T18:19:02.068Z,16.44
2022-09-26T18:21:36.259Z,16.47
2022-09-26T18:24:11.001Z,16.51
2022-09-26T18:26:47.079Z,16.53
2022-09-26T18:29:17.690Z,16.55
2022-09-26T18:31:46.003Z,16.55
2022-09-26T18:34:16.668Z,16.55
2022-09-26T18:36:44.595Z,16.54
2022-09-26T18:39:12.766Z,16.55
2022-09-26T18:41:40.461Z,16.56
2022-09-26T18:44:16.664Z,16.56
2022-09-26T18:46:48.267Z,16.57
2022-09-26T18:49:18.451Z,16.59
2022-09-26T18:51:46.920Z,16.61
2022-09-26T18:54:16.510Z,16.64
2022-09-26T18:57:02.973Z,16.67
2022-09-26T18:59:32.662Z,16.71
2022-09-26T19:02:02.644Z,16.75
2022-09-26T19:04:30.762Z,16.77
2022-09-26T19:07:02.361Z,16.79
2022-09-26T19:09:34.471Z,16.79
2022-09-26T19:12:03.530Z,16.75
2022-09-26T19:14:32.106Z,16.71
2022-09-26T19:17:03.764Z,16.65
2022-09-26T19:19:32.607Z,16.60
2022-09-26T19:22:02.093Z,16.56
2022-09-26T19:24:40.697Z,16.49
2022-09-26T19:27:15.234Z,16.42
2022-09-26T19:29:58.013Z,16.38
2022-09-26T19:32:34.276Z,16.34
2022-09-26T19:35:19.833Z,16.33
2022-09-26T19:37:47.796Z,16.32
2022-09-26T19:40:16.760Z,16.29
2022-09-26T19:42:44.122Z,16.28
2022-09-26T19:45:13.129Z,16.26
2022-09-26T19:47:47.190Z,16.25
2022-09-26T19:50:18.692Z,16.26
2022-09-26T19:52:47.547Z,16.25
2022-09-26T19:55:27.131Z,16.25
2022-09-26T19:58:12.361Z,16.07
2022-09-26T20:00:45.321Z,16.06
2022-09-26T20:03:16.255Z,16.09
2022-09-26T20:05:50.032Z,16.08
2022-09-26T20:08:24.170Z,16.10
2022-09-26T20:10:54.900Z,16.12
2022-09-26T20:13:24.838Z,16.18
2022-09-26T20:15:55.168Z,16.20
2022-09-26T20:18:26.430Z,16.27
2022-09-26T20:20:59.319Z,16.29
2022-09-26T20:23:28.280Z,16.32
2022-09-26T20:25:58.037Z,16.36
2022-09-26T20:28:27.033Z,16.38
2022-09-26T20:30:57.352Z,16.39
2022-09-26T20:33:29.244Z,16.42
2022-09-26T20:36:04.414Z,16.45
2022-09-26T20:38:41.555Z,16.51
2022-09-26T20:41:34.982Z,16.54
2022-09-26T20:44:13.589Z,16.60
2022-09-26T20:46:54.997Z,16.64
2022-09-26T20:49:30.974Z,16.64
2022-09-26T20:52:00.174Z,16.64
2022-09-26T20:54:30.277Z,16.66
2022-09-26T20:56:58.793Z,16.65
2022-09-26T20:59:28.897Z,16.65
2022-09-26T21:01:57.352Z,16.66
2022-09-26T21:04:33.318Z,16.66
2022-09-26T21:07:00.556Z,16.65
2022-09-26T21:09:27.851Z,16.65
2022-09-26T21:11:55.276Z,16.64
2022-09-26T21:14:22.593Z,16.66
2022-09-26T21:16:51.835Z,16.68
2022-09-26T21:19:21.934Z,16.70
2022-09-26T21:21:50.449Z,16.69
2022-09-26T21:24:30.085Z,16.70
2022-09-26T21:26:57.858Z,16.73
2022-09-26T21:29:25.141Z,16.75
2022-09-26T21:31:53.640Z,16.76
2022-09-26T21:34:23.380Z,16.75
2022-09-26T21:36:54.406Z,16.78
2022-09-26T21:39:22.390Z,16.78
2022-09-26T21:41:51.787Z,16.78
2022-09-26T21:44:23.931Z,16.78
2022-09-26T21:46:51.606Z,16.77
2022-09-26T21:49:19.186Z,16.78
2022-09-26T21:51:48.634Z,16.77
2022-09-26T21:54:22.519Z,16.77
2022-09-26T21:56:53.910Z,16.77
2022-09-26T21:59:22.830Z,16.78
2022-09-26T22:01:50.263Z,16.76
2022-09-26T22:04:19.098Z,16.75
2022-09-26T22:06:46.530Z,16.75
2022-09-26T22:09:14.105Z,16.72
2022-09-26T22:11:42.133Z,16.70
2022-09-26T22:14:09.526Z,16.67
2022-09-26T22:16:37.125Z,16.66
2022-09-26T22:19:06.954Z,16.62
2022-09-26T22:21:35.443Z,16.59
2022-09-26T22:24:03.033Z,16.60
2022-09-26T22:26:30.356Z,16.59
2022-09-26T22:28:57.582Z,16.59
2022-09-26T22:31:24.936Z,16.59
2022-09-26T22:33:58.933Z,16.60
2022-09-26T22:36:26.707Z,16.61
2022-09-26T22:38:54.959Z,16.62
2022-09-26T22:41:22.315Z,16.62
2022-09-26T22:43:49.630Z,16.61
2022-09-26T22:46:17.111Z,16.61
2022-09-26T22:48:46.510Z,16.60
2022-09-26T22:51:15.106Z,16.59
2022-09-26T22:53:43.885Z,16.59
2022-09-26T22:56:13.292Z,16.60
2022-09-26T22:58:51.222Z,16.62
2022-09-26T23:01:23.272Z,16.60
2022-09-26T23:03:53.083Z,16.62
2022-09-26T23:06:21.938Z,16.63
2022-09-26T23:08:50.070Z,16.64
2022-09-26T23:11:18.407Z,16.64
2022-09-26T23:13:47.481Z,16.66
2022-09-26T23:16:21.734Z,16.65
2022-09-26T23:18:50.894Z,16.64
2022-09-26T23:21:27.892Z,16.68
2022-09-26T23:23:56.362Z,16.67
2022-09-26T23:26:26.838Z,16.70
2022-09-26T23:28:55.529Z,16.70
2022-09-26T23:31:23.781Z,16.71
2022-09-26T23:33:52.734Z,16.69
2022-09-26T23:36:21.417Z,16.68
2022-09-26T23:38:49.982Z,16.64
2022-09-26T23:41:18.023Z,16.60
2022-09-26T23:43:46.453Z,16.56
2022-09-26T23:46:14.528Z,16.50
2022-09-26T23:48:46.218Z,16.48
2022-09-26T23:51:16.531Z,16.46
2022-09-26T23:53:44.298Z,16.45
2022-09-26T23:56:13.594Z,16.49
2022-09-26T23:58:42.131Z,16.52
